sensor_id;sensor_type;location;lat;lon;timestamp;P1;durP1;ratioP1;P2;durP2;ratioP2
20729;SDS011;10526;50.850;12.928;2022-09-13T00:00:27;14.52;;;7.28;;
20729;SDS011;10526;50.850;12.928;2022-09-13T00:04:49;13.57;;;7.15;;
20729;SDS011;10526;50.850;12.928;2022-09-13T00:09:11;12.63;;;6.82;;
20729;SDS011;10526;50.850;12.928;2022-09-13T00:13:33;13.55;;;7.53;;
20729;SDS011;10526;50.850;12.928;2022-09-13T00:17:56;14.48;;;8.20;;
20729;SDS011;10526;50.850;12.928;2022-09-13T00:22:18;16.80;;;8.63;;
20729;SDS011;10526;50.850;12.928;2022-09-13T00:26:41;15.75;;;8.55;;
20729;SDS011;10526;50.850;12.928;2022-09-13T00:31:04;15.55;;;8.80;;
20729;SDS011;10526;50.850;12.928;2022-09-13T00:35:29;14.93;;;9.20;;
20729;SDS011;10526;50.850;12.928;2022-09-13T00:39:52;20.17;;;9.77;;
20729;SDS011;10526;50.850;12.928;2022-09-13T00:49:19;15.60;;;9.80;;
20729;SDS011;10526;50.850;12.928;2022-09-13T00:53:56;18.27;;;10.27;;
20729;SDS011;10526;50.850;12.928;2022-09-13T00:58:27;17.00;;;9.90;;
20729;SDS011;10526;50.850;12.928;2022-09-13T01:03:01;17.40;;;10.93;;
20729;SDS011;10526;50.850;12.928;2022-09-13T01:07:29;17.75;;;9.95;;
20729;SDS011;10526;50.850;12.928;2022-09-13T01:11:57;18.77;;;11.75;;
20729;SDS011;10526;50.850;12.928;2022-09-13T01:16:28;18.17;;;11.85;;
20729;SDS011;10526;50.850;12.928;2022-09-13T01:30:50;17.58;;;11.93;;
20729;SDS011;10526;50.850;12.928;2022-09-13T01:35:50;17.80;;;11.77;;
20729;SDS011;10526;50.850;12.928;2022-09-13T01:40:29;18.88;;;11.95;;
20729;SDS011;10526;50.850;12.928;2022-09-13T01:45:22;19.25;;;11.50;;
20729;SDS011;10526;50.850;12.928;2022-09-13T01:50:27;17.27;;;11.27;;
20729;SDS011;10526;50.850;12.928;2022-09-13T02:00:05;18.50;;;12.63;;
20729;SDS011;10526;50.850;12.928;2022-09-13T02:04:37;18.38;;;11.38;;
20729;SDS011;10526;50.850;12.928;2022-09-13T02:09:15;18.38;;;11.70;;
20729;SDS011;10526;50.850;12.928;2022-09-13T02:13:46;19.00;;;11.82;;
20729;SDS011;10526;50.850;12.928;2022-09-13T02:18:42;18.60;;;11.45;;
20729;SDS011;10526;50.850;12.928;2022-09-13T02:23:11;18.85;;;11.95;;
20729;SDS011;10526;50.850;12.928;2022-09-13T02:27:46;18.17;;;11.25;;
20729;SDS011;10526;50.850;12.928;2022-09-13T02:36:51;18.38;;;10.27;;
20729;SDS011;10526;50.850;12.928;2022-09-13T02:41:20;17.67;;;10.35;;
20729;SDS011;10526;50.850;12.928;2022-09-13T02:51:37;15.50;;;9.48;;
20729;SDS011;10526;50.850;12.928;2022-09-13T02:56:43;17.77;;;9.02;;
20729;SDS011;10526;50.850;12.928;2022-09-13T03:01:13;18.40;;;9.10;;
20729;SDS011;10526;50.850;12.928;2022-09-13T03:05:36;16.08;;;9.40;;
20729;SDS011;10526;50.850;12.928;2022-09-13T03:10:00;16.38;;;9.48;;
20729;SDS011;10526;50.850;12.928;2022-09-13T03:19:27;14.65;;;8.32;;
20729;SDS011;10526;50.850;12.928;2022-09-13T03:24:21;13.13;;;7.40;;
20729;SDS011;10526;50.850;12.928;2022-09-13T03:34:12;16.75;;;8.55;;
20729;SDS011;10526;50.850;12.928;2022-09-13T03:38:50;17.67;;;8.70;;
20729;SDS011;10526;50.850;12.928;2022-09-13T03:47:57;16.83;;;8.95;;
20729;SDS011;10526;50.850;12.928;2022-09-13T03:52:20;15.25;;;8.68;;
20729;SDS011;10526;50.850;12.928;2022-09-13T03:56:43;17.73;;;8.57;;
20729;SDS011;10526;50.850;12.928;2022-09-13T04:01:30;15.13;;;8.05;;
20729;SDS011;10526;50.850;12.928;2022-09-13T04:05:52;17.85;;;8.75;;
20729;SDS011;10526;50.850;12.928;2022-09-13T04:10:14;16.33;;;9.48;;
20729;SDS011;10526;50.850;12.928;2022-09-13T04:14:36;15.48;;;8.15;;
20729;SDS011;10526;50.850;12.928;2022-09-13T04:18:59;16.23;;;9.48;;
20729;SDS011;10526;50.850;12.928;2022-09-13T04:23:21;17.40;;;9.10;;
20729;SDS011;10526;50.850;12.928;2022-09-13T04:27:44;17.05;;;8.77;;
20729;SDS011;10526;50.850;12.928;2022-09-13T04:32:07;20.00;;;9.73;;
20729;SDS011;10526;50.850;12.928;2022-09-13T04:36:30;16.67;;;9.57;;
20729;SDS011;10526;50.850;12.928;2022-09-13T04:40:55;15.57;;;9.68;;
20729;SDS011;10526;50.850;12.928;2022-09-13T04:45:18;16.88;;;9.27;;
20729;SDS011;10526;50.850;12.928;2022-09-13T04:49:41;18.23;;;9.63;;
20729;SDS011;10526;50.850;12.928;2022-09-13T04:54:04;16.85;;;9.23;;
20729;SDS011;10526;50.850;12.928;2022-09-13T04:58:31;15.27;;;9.10;;
20729;SDS011;10526;50.850;12.928;2022-09-13T05:02:56;20.48;;;9.45;;
20729;SDS011;10526;50.850;12.928;2022-09-13T05:07:18;19.85;;;9.60;;
20729;SDS011;10526;50.850;12.928;2022-09-13T05:11:40;16.17;;;8.63;;
20729;SDS011;10526;50.850;12.928;2022-09-13T05:16:04;15.90;;;8.52;;
20729;SDS011;10526;50.850;12.928;2022-09-13T05:20:31;14.38;;;7.22;;
20729;SDS011;10526;50.850;12.928;2022-09-13T05:24:53;18.15;;;7.05;;
20729;SDS011;10526;50.850;12.928;2022-09-13T05:29:15;17.50;;;7.40;;
20729;SDS011;10526;50.850;12.928;2022-09-13T05:33:38;13.55;;;6.68;;
20729;SDS011;10526;50.850;12.928;2022-09-13T05:38:00;13.60;;;6.80;;
20729;SDS011;10526;50.850;12.928;2022-09-13T05:42:22;14.63;;;7.05;;
20729;SDS011;10526;50.850;12.928;2022-09-13T05:46:46;12.98;;;6.57;;
20729;SDS011;10526;50.850;12.928;2022-09-13T05:55:37;14.93;;;6.70;;
20729;SDS011;10526;50.850;12.928;2022-09-13T05:59:59;13.32;;;6.28;;
20729;SDS011;10526;50.850;12.928;2022-09-13T06:04:32;13.93;;;5.47;;
20729;SDS011;10526;50.850;12.928;2022-09-13T06:08:56;13.05;;;4.78;;
20729;SDS011;10526;50.850;12.928;2022-09-13T06:13:19;12.23;;;4.60;;
20729;SDS011;10526;50.850;12.928;2022-09-13T06:17:42;14.85;;;5.97;;
20729;SDS011;10526;50.850;12.928;2022-09-13T06:22:04;14.15;;;5.28;;
20729;SDS011;10526;50.850;12.928;2022-09-13T06:26:27;12.98;;;5.20;;
20729;SDS011;10526;50.850;12.928;2022-09-13T06:30:49;15.75;;;5.07;;
20729;SDS011;10526;50.850;12.928;2022-09-13T06:35:12;10.18;;;4.32;;
20729;SDS011;10526;50.850;12.928;2022-09-13T06:39:34;19.63;;;5.03;;
20729;SDS011;10526;50.850;12.928;2022-09-13T06:43:57;20.25;;;5.68;;
20729;SDS011;10526;50.850;12.928;2022-09-13T06:48:21;12.65;;;4.82;;
20729;SDS011;10526;50.850;12.928;2022-09-13T06:52:43;13.43;;;4.90;;
20729;SDS011;10526;50.850;12.928;2022-09-13T06:57:06;13.07;;;5.20;;
20729;SDS011;10526;50.850;12.928;2022-09-13T07:01:29;15.90;;;4.90;;
20729;SDS011;10526;50.850;12.928;2022-09-13T07:06:11;17.42;;;5.50;;
20729;SDS011;10526;50.850;12.928;2022-09-13T07:10:42;16.70;;;5.38;;
20729;SDS011;10526;50.850;12.928;2022-09-13T07:15:04;15.35;;;5.03;;
20729;SDS011;10526;50.850;12.928;2022-09-13T07:19:28;19.63;;;5.47;;
20729;SDS011;10526;50.850;12.928;2022-09-13T07:23:52;14.23;;;5.05;;
20729;SDS011;10526;50.850;12.928;2022-09-13T07:28:15;12.82;;;4.40;;
20729;SDS011;10526;50.850;12.928;2022-09-13T07:32:42;12.82;;;3.95;;
20729;SDS011;10526;50.850;12.928;2022-09-13T07:37:04;17.33;;;4.70;;
20729;SDS011;10526;50.850;12.928;2022-09-13T07:41:27;19.00;;;4.25;;
20729;SDS011;10526;50.850;12.928;2022-09-13T07:45:57;12.70;;;4.35;;
20729;SDS011;10526;50.850;12.928;2022-09-13T07:50:24;10.48;;;4.20;;
20729;SDS011;10526;50.850;12.928;2022-09-13T07:54:46;10.68;;;3.80;;
20729;SDS011;10526;50.850;12.928;2022-09-13T07:59:13;8.38;;;3.88;;
20729;SDS011;10526;50.850;12.928;2022-09-13T08:03:37;10.45;;;3.97;;
20729;SDS011;10526;50.850;12.928;2022-09-13T08:07:59;9.52;;;4.60;;
20729;SDS011;10526;50.850;12.928;2022-09-13T08:12:22;8.43;;;4.05;;
20729;SDS011;10526;50.850;12.928;2022-09-13T08:16:44;10.02;;;4.75;;
20729;SDS011;10526;50.850;12.928;2022-09-13T08:21:07;15.20;;;4.78;;
20729;SDS011;10526;50.850;12.928;2022-09-13T08:25:31;14.18;;;5.15;;
20729;SDS011;10526;50.850;12.928;2022-09-13T08:29:57;12.10;;;4.70;;
20729;SDS011;10526;50.850;12.928;2022-09-13T08:34:20;11.00;;;4.80;;
20729;SDS011;10526;50.850;12.928;2022-09-13T08:38:46;12.13;;;4.72;;
20729;SDS011;10526;50.850;12.928;2022-09-13T08:48:13;18.67;;;6.47;;
20729;SDS011;10526;50.850;12.928;2022-09-13T08:57:58;15.05;;;6.10;;
20729;SDS011;10526;50.850;12.928;2022-09-13T09:17:10;14.90;;;3.88;;
20729;SDS011;10526;50.850;12.928;2022-09-13T09:21:40;13.57;;;3.70;;
20729;SDS011;10526;50.850;12.928;2022-09-13T09:26:21;10.18;;;3.25;;
20729;SDS011;10526;50.850;12.928;2022-09-13T09:35:36;18.08;;;4.05;;
20729;SDS011;10526;50.850;12.928;2022-09-13T09:40:21;9.23;;;3.03;;
20729;SDS011;10526;50.850;12.928;2022-09-13T09:44:48;5.03;;;2.22;;
20729;SDS011;10526;50.850;12.928;2022-09-13T09:49:35;7.75;;;2.63;;
20729;SDS011;10526;50.850;12.928;2022-09-13T09:54:31;5.72;;;2.60;;
20729;SDS011;10526;50.850;12.928;2022-09-13T09:58:55;4.53;;;2.20;;
20729;SDS011;10526;50.850;12.928;2022-09-13T10:03:18;7.18;;;2.40;;
20729;SDS011;10526;50.850;12.928;2022-09-13T10:07:56;8.77;;;2.88;;
20729;SDS011;10526;50.850;12.928;2022-09-13T10:12:24;15.18;;;3.00;;
20729;SDS011;10526;50.850;12.928;2022-09-13T10:16:49;6.10;;;2.42;;
20729;SDS011;10526;50.850;12.928;2022-09-13T10:21:42;5.93;;;2.15;;
20729;SDS011;10526;50.850;12.928;2022-09-13T10:26:14;6.78;;;2.13;;
20729;SDS011;10526;50.850;12.928;2022-09-13T10:35:28;5.00;;;2.30;;
20729;SDS011;10526;50.850;12.928;2022-09-13T10:39:52;4.32;;;2.17;;
20729;SDS011;10526;50.850;12.928;2022-09-13T10:44:39;8.13;;;2.42;;
20729;SDS011;10526;50.850;12.928;2022-09-13T10:49:33;6.78;;;2.45;;
20729;SDS011;10526;50.850;12.928;2022-09-13T10:54:19;6.30;;;2.65;;
20729;SDS011;10526;50.850;12.928;2022-09-13T10:58:44;4.90;;;2.40;;
20729;SDS011;10526;50.850;12.928;2022-09-13T11:12:45;6.57;;;2.60;;
20729;SDS011;10526;50.850;12.928;2022-09-13T11:22:18;6.53;;;2.33;;
20729;SDS011;10526;50.850;12.928;2022-09-13T11:50:54;3.78;;;1.70;;
20729;SDS011;10526;50.850;12.928;2022-09-13T11:55:55;6.85;;;2.10;;
20729;SDS011;10526;50.850;12.928;2022-09-13T12:00:31;6.47;;;1.80;;
20729;SDS011;10526;50.850;12.928;2022-09-13T12:05:26;5.35;;;1.60;;
20729;SDS011;10526;50.850;12.928;2022-09-13T12:09:56;4.25;;;1.60;;
20729;SDS011;10526;50.850;12.928;2022-09-13T12:14:49;2.45;;;1.55;;
20729;SDS011;10526;50.850;12.928;2022-09-13T12:19:20;1.95;;;1.63;;
20729;SDS011;10526;50.850;12.928;2022-09-13T12:24:01;8.85;;;1.83;;
20729;SDS011;10526;50.850;12.928;2022-09-13T12:28:44;2.25;;;1.70;;
20729;SDS011;10526;50.850;12.928;2022-09-13T12:33:15;2.72;;;1.65;;
20729;SDS011;10526;50.850;12.928;2022-09-13T12:47:56;5.18;;;2.10;;
20729;SDS011;10526;50.850;12.928;2022-09-13T13:07:15;4.18;;;2.10;;
20729;SDS011;10526;50.850;12.928;2022-09-13T13:11:43;5.20;;;2.30;;
20729;SDS011;10526;50.850;12.928;2022-09-13T13:25:52;4.82;;;2.22;;
20729;SDS011;10526;50.850;12.928;2022-09-13T13:35:24;7.60;;;2.78;;
20729;SDS011;10526;50.850;12.928;2022-09-13T13:40:17;5.80;;;2.28;;
20729;SDS011;10526;50.850;12.928;2022-09-13T13:53:57;3.72;;;2.13;;
20729;SDS011;10526;50.850;12.928;2022-09-13T13:58:28;6.03;;;2.47;;
20729;SDS011;10526;50.850;12.928;2022-09-13T14:08:42;3.47;;;2.00;;
20729;SDS011;10526;50.850;12.928;2022-09-13T14:18:16;6.63;;;2.00;;
20729;SDS011;10526;50.850;12.928;2022-09-13T14:23:11;4.90;;;2.08;;
20729;SDS011;10526;50.850;12.928;2022-09-13T14:27:39;7.72;;;2.20;;
20729;SDS011;10526;50.850;12.928;2022-09-13T14:32:05;4.03;;;1.65;;
20729;SDS011;10526;50.850;12.928;2022-09-13T14:36:32;3.65;;;1.80;;
20729;SDS011;10526;50.850;12.928;2022-09-13T14:41:16;3.63;;;2.00;;
20729;SDS011;10526;50.850;12.928;2022-09-13T14:45:43;3.78;;;1.88;;
20729;SDS011;10526;50.850;12.928;2022-09-13T14:50:13;6.28;;;2.10;;
20729;SDS011;10526;50.850;12.928;2022-09-13T14:54:45;4.13;;;2.03;;
20729;SDS011;10526;50.850;12.928;2022-09-13T14:59:14;3.80;;;1.90;;
20729;SDS011;10526;50.850;12.928;2022-09-13T15:04:09;3.85;;;1.80;;
20729;SDS011;10526;50.850;12.928;2022-09-13T15:13:01;5.28;;;1.98;;
20729;SDS011;10526;50.850;12.928;2022-09-13T15:17:26;3.55;;;1.83;;
20729;SDS011;10526;50.850;12.928;2022-09-13T15:21:48;7.25;;;2.28;;
20729;SDS011;10526;50.850;12.928;2022-09-13T15:26:21;4.03;;;1.98;;
20729;SDS011;10526;50.850;12.928;2022-09-13T15:30:48;3.70;;;2.05;;
20729;SDS011;10526;50.850;12.928;2022-09-13T15:35:22;4.95;;;2.08;;
20729;SDS011;10526;50.850;12.928;2022-09-13T15:40:01;5.40;;;2.05;;
20729;SDS011;10526;50.850;12.928;2022-09-13T15:44:43;4.18;;;2.08;;
20729;SDS011;10526;50.850;12.928;2022-09-13T15:49:05;3.33;;;2.03;;
20729;SDS011;10526;50.850;12.928;2022-09-13T15:53:27;4.53;;;2.03;;
20729;SDS011;10526;50.850;12.928;2022-09-13T15:57:50;4.07;;;2.40;;
20729;SDS011;10526;50.850;12.928;2022-09-13T16:02:34;7.95;;;2.60;;
20729;SDS011;10526;50.850;12.928;2022-09-13T16:06:56;3.22;;;2.20;;
20729;SDS011;10526;50.850;12.928;2022-09-13T16:11:18;5.45;;;2.10;;
20729;SDS011;10526;50.850;12.928;2022-09-13T16:15:40;8.30;;;2.50;;
20729;SDS011;10526;50.850;12.928;2022-09-13T16:20:03;5.80;;;2.10;;
20729;SDS011;10526;50.850;12.928;2022-09-13T16:24:29;6.90;;;2.20;;
20729;SDS011;10526;50.850;12.928;2022-09-13T16:28:51;3.80;;;2.40;;
20729;SDS011;10526;50.850;12.928;2022-09-13T16:33:14;6.63;;;2.60;;
20729;SDS011;10526;50.850;12.928;2022-09-13T16:37:36;5.50;;;2.47;;
20729;SDS011;10526;50.850;12.928;2022-09-13T16:42:01;4.57;;;2.45;;
20729;SDS011;10526;50.850;12.928;2022-09-13T16:46:25;5.32;;;2.40;;
20729;SDS011;10526;50.850;12.928;2022-09-13T16:50:48;5.07;;;2.42;;
20729;SDS011;10526;50.850;12.928;2022-09-13T16:55:11;4.18;;;2.10;;
20729;SDS011;10526;50.850;12.928;2022-09-13T16:59:33;5.22;;;2.38;;
20729;SDS011;10526;50.850;12.928;2022-09-13T17:03:56;3.53;;;2.03;;
20729;SDS011;10526;50.850;12.928;2022-09-13T17:08:18;5.30;;;2.47;;
20729;SDS011;10526;50.850;12.928;2022-09-13T17:12:40;6.50;;;2.53;;
20729;SDS011;10526;50.850;12.928;2022-09-13T17:17:02;6.32;;;2.33;;
20729;SDS011;10526;50.850;12.928;2022-09-13T17:21:25;6.53;;;2.47;;
20729;SDS011;10526;50.850;12.928;2022-09-13T17:25:48;6.80;;;2.70;;
20729;SDS011;10526;50.850;12.928;2022-09-13T17:30:11;6.65;;;2.70;;
20729;SDS011;10526;50.850;12.928;2022-09-13T17:34:34;5.22;;;2.70;;
20729;SDS011;10526;50.850;12.928;2022-09-13T17:38:56;5.93;;;2.58;;
20729;SDS011;10526;50.850;12.928;2022-09-13T17:43:20;6.45;;;2.83;;
20729;SDS011;10526;50.850;12.928;2022-09-13T17:47:42;6.72;;;2.80;;
20729;SDS011;10526;50.850;12.928;2022-09-13T17:52:05;10.13;;;2.58;;
20729;SDS011;10526;50.850;12.928;2022-09-13T17:56:29;7.82;;;3.25;;
20729;SDS011;10526;50.850;12.928;2022-09-13T18:01:15;8.00;;;3.03;;
20729;SDS011;10526;50.850;12.928;2022-09-13T18:05:37;8.30;;;3.25;;
20729;SDS011;10526;50.850;12.928;2022-09-13T18:10:00;6.72;;;2.75;;
20729;SDS011;10526;50.850;12.928;2022-09-13T18:14:23;5.72;;;2.55;;
20729;SDS011;10526;50.850;12.928;2022-09-13T18:18:48;6.05;;;2.70;;
20729;SDS011;10526;50.850;12.928;2022-09-13T18:23:12;6.03;;;2.95;;
20729;SDS011;10526;50.850;12.928;2022-09-13T18:27:35;5.60;;;2.60;;
20729;SDS011;10526;50.850;12.928;2022-09-13T18:31:57;6.63;;;2.75;;
20729;SDS011;10526;50.850;12.928;2022-09-13T18:36:19;6.55;;;3.20;;
20729;SDS011;10526;50.850;12.928;2022-09-13T18:40:43;6.18;;;2.67;;
20729;SDS011;10526;50.850;12.928;2022-09-13T18:45:05;6.60;;;3.20;;
20729;SDS011;10526;50.850;12.928;2022-09-13T18:49:29;6.00;;;2.80;;
20729;SDS011;10526;50.850;12.928;2022-09-13T18:53:51;6.30;;;3.15;;
20729;SDS011;10526;50.850;12.928;2022-09-13T18:58:14;7.88;;;3.47;;
20729;SDS011;10526;50.850;12.928;2022-09-13T19:02:36;6.88;;;3.33;;
20729;SDS011;10526;50.850;12.928;2022-09-13T19:07:18;10.30;;;3.22;;
20729;SDS011;10526;50.850;12.928;2022-09-13T19:11:41;5.95;;;3.08;;
20729;SDS011;10526;50.850;12.928;2022-09-13T19:16:09;7.53;;;3.53;;
20729;SDS011;10526;50.850;12.928;2022-09-13T19:20:35;7.07;;;3.30;;
20729;SDS011;10526;50.850;12.928;2022-09-13T19:24:57;9.25;;;3.90;;
20729;SDS011;10526;50.850;12.928;2022-09-13T19:29:20;11.43;;;4.45;;
20729;SDS011;10526;50.850;12.928;2022-09-13T19:33:44;12.73;;;4.53;;
20729;SDS011;10526;50.850;12.928;2022-09-13T19:38:06;8.13;;;3.80;;
20729;SDS011;10526;50.850;12.928;2022-09-13T19:42:28;9.27;;;4.05;;
20729;SDS011;10526;50.850;12.928;2022-09-13T19:46:51;10.43;;;3.95;;
20729;SDS011;10526;50.850;12.928;2022-09-13T19:51:35;9.05;;;4.15;;
20729;SDS011;10526;50.850;12.928;2022-09-13T19:55:58;7.88;;;3.88;;
20729;SDS011;10526;50.850;12.928;2022-09-13T20:00:20;9.25;;;4.15;;
20729;SDS011;10526;50.850;12.928;2022-09-13T20:04:44;11.48;;;4.25;;
20729;SDS011;10526;50.850;12.928;2022-09-13T20:09:09;8.65;;;3.78;;
20729;SDS011;10526;50.850;12.928;2022-09-13T20:13:33;10.18;;;4.50;;
20729;SDS011;10526;50.850;12.928;2022-09-13T20:17:56;12.57;;;4.95;;
20729;SDS011;10526;50.850;12.928;2022-09-13T20:22:18;11.30;;;5.03;;
20729;SDS011;10526;50.850;12.928;2022-09-13T20:26:41;10.65;;;4.40;;
20729;SDS011;10526;50.850;12.928;2022-09-13T20:31:03;11.40;;;4.32;;
20729;SDS011;10526;50.850;12.928;2022-09-13T20:35:26;10.32;;;4.78;;
20729;SDS011;10526;50.850;12.928;2022-09-13T20:39:50;9.63;;;4.72;;
20729;SDS011;10526;50.850;12.928;2022-09-13T20:44:12;13.32;;;5.85;;
20729;SDS011;10526;50.850;12.928;2022-09-13T20:48:35;12.82;;;5.70;;
20729;SDS011;10526;50.850;12.928;2022-09-13T20:52:57;10.57;;;4.78;;
20729;SDS011;10526;50.850;12.928;2022-09-13T20:57:21;10.10;;;5.15;;
20729;SDS011;10526;50.850;12.928;2022-09-13T21:01:44;12.52;;;5.18;;
20729;SDS011;10526;50.850;12.928;2022-09-13T21:06:07;11.07;;;5.32;;
20729;SDS011;10526;50.850;12.928;2022-09-13T21:10:30;12.45;;;5.68;;
20729;SDS011;10526;50.850;12.928;2022-09-13T21:14:53;11.60;;;6.00;;
20729;SDS011;10526;50.850;12.928;2022-09-13T21:19:16;10.98;;;4.93;;
20729;SDS011;10526;50.850;12.928;2022-09-13T21:23:38;10.57;;;5.63;;
20729;SDS011;10526;50.850;12.928;2022-09-13T21:28:01;15.32;;;5.60;;
20729;SDS011;10526;50.850;12.928;2022-09-13T21:32:23;14.57;;;5.82;;
20729;SDS011;10526;50.850;12.928;2022-09-13T21:36:45;11.73;;;5.75;;
20729;SDS011;10526;50.850;12.928;2022-09-13T21:41:10;12.45;;;5.35;;
20729;SDS011;10526;50.850;12.928;2022-09-13T21:45:35;12.27;;;4.53;;
20729;SDS011;10526;50.850;12.928;2022-09-13T21:49:57;11.52;;;4.82;;
20729;SDS011;10526;50.850;12.928;2022-09-13T21:54:19;13.38;;;5.50;;
20729;SDS011;10526;50.850;12.928;2022-09-13T21:58:46;10.65;;;5.13;;
20729;SDS011;10526;50.850;12.928;2022-09-13T22:03:13;10.13;;;5.40;;
20729;SDS011;10526;50.850;12.928;2022-09-13T22:07:35;10.07;;;5.00;;
20729;SDS011;10526;50.850;12.928;2022-09-13T22:11:58;11.52;;;5.50;;
20729;SDS011;10526;50.850;12.928;2022-09-13T22:16:25;15.52;;;5.32;;
20729;SDS011;10526;50.850;12.928;2022-09-13T22:20:49;10.88;;;5.03;;
20729;SDS011;10526;50.850;12.928;2022-09-13T22:25:10;11.27;;;5.25;;
20729;SDS011;10526;50.850;12.928;2022-09-13T22:29:32;14.10;;;5.85;;
20729;SDS011;10526;50.850;12.928;2022-09-13T22:33:54;11.23;;;5.05;;
20729;SDS011;10526;50.850;12.928;2022-09-13T22:38:17;12.73;;;5.78;;
20729;SDS011;10526;50.850;12.928;2022-09-13T22:42:39;10.75;;;5.50;;
20729;SDS011;10526;50.850;12.928;2022-09-13T22:47:01;11.18;;;5.70;;
20729;SDS011;10526;50.850;12.928;2022-09-13T22:51:23;11.35;;;5.60;;
20729;SDS011;10526;50.850;12.928;2022-09-13T22:55:45;10.38;;;5.53;;
20729;SDS011;10526;50.850;12.928;2022-09-13T23:00:09;12.75;;;5.53;;
20729;SDS011;10526;50.850;12.928;2022-09-13T23:04:32;10.75;;;5.40;;
20729;SDS011;10526;50.850;12.928;2022-09-13T23:08:56;15.13;;;5.32;;
20729;SDS011;10526;50.850;12.928;2022-09-13T23:13:21;12.65;;;5.72;;
20729;SDS011;10526;50.850;12.928;2022-09-13T23:17:44;15.23;;;6.20;;
20729;SDS011;10526;50.850;12.928;2022-09-13T23:22:07;12.00;;;6.07;;
20729;SDS011;10526;50.850;12.928;2022-09-13T23:26:29;12.27;;;6.28;;
20729;SDS011;10526;50.850;12.928;2022-09-13T23:30:52;13.40;;;5.57;;
20729;SDS011;10526;50.850;12.928;2022-09-13T23:35:14;12.68;;;5.85;;
20729;SDS011;10526;50.850;12.928;2022-09-13T23:39:36;11.68;;;5.85;;
20729;SDS011;10526;50.850;12.928;2022-09-13T23:43:59;10.55;;;5.50;;
20729;SDS011;10526;50.850;12.928;2022-09-13T23:48:23;14.63;;;6.25;;
20729;SDS011;10526;50.850;12.928;2022-09-13T23:52:45;12.85;;;6.00;;
20729;SDS011;10526;50.850;12.928;2022-09-13T23:57:07;12.65;;;6.30;;
